Wainwright, AK

1:07 PM AKST on February 22, 2017 (GMT -0900)
Wainwright | | Change Station
Active Advisory: Winter Storm Watch

Elev 39 ft 70.63 °N, 159.98 °W | Updated 14 minutes ago

Partly Cloudy
Partly Cloudy
-23 °F
Feels Like -39 °F
N
6
Wind Variable Wind from SW

Today
High -- | Low -- °F
--% Chance of Precip.
Yesterday
High -- | Low -- °F
Precip. -- in
Pressure 30.27 in
Visibility 10.0 miles
Clouds Scattered Clouds 8000 ft
Windchill -39 °F
Dew Point -27 °F
Humidity 82%
Rainfall 0.00 in
Snow Depth Not available.
9:41 AM 6:07 PM
Waning Crescent, 15% visible
METAR PAWI 222153Z AUTO 23005KT 10SM SCT080 M31/M33 A3027 RMK SLPNO T13061328 TSNO $ VIA AUTODIAL
Pressure 30.27 in
Visibility 10.0 miles
Clouds Scattered Clouds 8000 ft
Windchill -39 °F
Dew Point -27 °F
Humidity 82%
Rainfall 0.00 in
Snow Depth Not available.
9:41 AM 6:07 PM
Waning Crescent, 15% visible
METAR PAWI 222153Z AUTO 23005KT 10SM SCT080 M31/M33 A3027 RMK SLPNO T13061328 TSNO $ VIA AUTODIAL

Get Your Daily Forecast Email!

Thanks for signing up!

Be on the lookout for a verification email in your inbox.

You'll start receiving the daily forecast at 8 AM.

×

10-Day Weather Forecast

Almanac

Astronomy

Feb. 22, 2017 Rise Set
Actual Time
Civil Twilight
Nautical Twilight
Astronomical Twilight
Moon
Length of Visible Light
Length of Day
Tomorrow will be .
, % of the Moon is Illuminated

Today's Extremes

State Highs State Lows

Community

WunderPhotos

Upload Photos

1,962,540 photos uploaded!

WunderBlog® & News

Nearby

Air Quality

  Air Quality AQ Index Pollutant
Not available.

Snow Depth

Station Depth Elevation

Earthquake Activity

City Distance Mag. Time & Date
Minimum magnitude displayed is 2.5.

Coastal Water Temperatures

Place Temperature

Stations

Nearby Weather Stations

Station Location Temp. Windchill Dew Point Humidity Wind Precip. Elev Updated Type
                   

Watches & Warnings

Winter Storm Watch
Issued: 4:44 AM AKST Feb. 22, 2017 – National Weather Service

... Winter Storm Watch remains in effect from Thursday afternoon
through Friday afternoon...

* wind... east winds 25 to 35 mph with gusts to 60 mph with
strongest gusts near Cape Lisburne.

* Visibility... one half mile or less at times.

* Snow... 4 to 6 inches.

* Wind chill... around 55 below.

* Timing... winds and snow will increase Thursday afternoon and
will continue through Friday afternoon reducing visibility to
one half mile or less at times.

* Impacts... travel and outdoor activities will be difficult.

Precautionary/preparedness actions...

A Winter Storm Watch means that there is a potential for one or
more significant winter weather hazards.